sensor_id;sensor_type;location;lat;lon;timestamp;temperature;humidity
18335;DHT22;9293;49.524;10.964;2022-09-09T00:15:37;14.70;99.90
18335;DHT22;9293;49.524;10.964;2022-09-09T00:18:32;14.70;99.90
18335;DHT22;9293;49.524;10.964;2022-09-09T00:21:06;14.60;99.90
18335;DHT22;9293;49.524;10.964;2022-09-09T00:23:39;14.60;99.90
18335;DHT22;9293;49.524;10.964;2022-09-09T00:26:42;14.70;99.90
18335;DHT22;9293;49.524;10.964;2022-09-09T00:29:34;14.60;99.90
18335;DHT22;9293;49.524;10.964;2022-09-09T00:32:19;14.60;99.90
18335;DHT22;9293;49.524;10.964;2022-09-09T00:35:16;14.60;99.90
18335;DHT22;9293;49.524;10.964;2022-09-09T00:37:48;14.70;99.90
18335;DHT22;9293;49.524;10.964;2022-09-09T00:40:35;14.70;99.90
18335;DHT22;9293;49.524;10.964;2022-09-09T00:43:18;14.70;99.90
18335;DHT22;9293;49.524;10.964;2022-09-09T00:54:37;14.70;99.90
18335;DHT22;9293;49.524;10.964;2022-09-09T00:57:28;14.70;99.90
18335;DHT22;9293;49.524;10.964;2022-09-09T01:00:19;14.70;99.90
18335;DHT22;9293;49.524;10.964;2022-09-09T01:03:00;14.70;99.90
18335;DHT22;9293;49.524;10.964;2022-09-09T01:08:05;14.70;99.90
18335;DHT22;9293;49.524;10.964;2022-09-09T01:10:51;14.70;99.90
18335;DHT22;9293;49.524;10.964;2022-09-09T01:13:33;14.60;99.90
18335;DHT22;9293;49.524;10.964;2022-09-09T01:16:09;14.60;99.90
18335;DHT22;9293;49.524;10.964;2022-09-09T01:18:44;14.60;99.90
18335;DHT22;9293;49.524;10.964;2022-09-09T01:25:01;14.50;99.90
18335;DHT22;9293;49.524;10.964;2022-09-09T01:27:59;14.50;99.90
18335;DHT22;9293;49.524;10.964;2022-09-09T01:30:28;14.50;99.90
18335;DHT22;9293;49.524;10.964;2022-09-09T01:32:58;14.50;99.90
18335;DHT22;9293;49.524;10.964;2022-09-09T01:38:10;14.40;99.90
18335;DHT22;9293;49.524;10.964;2022-09-09T01:40:38;14.50;99.90
18335;DHT22;9293;49.524;10.964;2022-09-09T01:43:06;14.50;99.90
18335;DHT22;9293;49.524;10.964;2022-09-09T01:45:37;14.50;99.90
18335;DHT22;9293;49.524;10.964;2022-09-09T01:48:07;14.50;99.90
18335;DHT22;9293;49.524;10.964;2022-09-09T01:50:44;14.40;99.90
18335;DHT22;9293;49.524;10.964;2022-09-09T01:53:14;14.50;99.90
18335;DHT22;9293;49.524;10.964;2022-09-09T01:58:45;14.40;99.90
18335;DHT22;9293;49.524;10.964;2022-09-09T02:01:38;14.30;99.90
18335;DHT22;9293;49.524;10.964;2022-09-09T02:04:37;14.20;99.90
18335;DHT22;9293;49.524;10.964;2022-09-09T02:07:30;14.10;99.90
18335;DHT22;9293;49.524;10.964;2022-09-09T02:10:16;14.20;99.90
18335;DHT22;9293;49.524;10.964;2022-09-09T02:13:01;14.20;99.90
18335;DHT22;9293;49.524;10.964;2022-09-09T02:15:35;14.20;99.90
18335;DHT22;9293;49.524;10.964;2022-09-09T02:18:08;14.30;99.90
18335;DHT22;9293;49.524;10.964;2022-09-09T02:20:37;14.30;99.90
18335;DHT22;9293;49.524;10.964;2022-09-09T02:23:07;14.30;99.90
18335;DHT22;9293;49.524;10.964;2022-09-09T02:25:37;14.30;99.90
18335;DHT22;9293;49.524;10.964;2022-09-09T02:28:20;14.40;99.90
18335;DHT22;9293;49.524;10.964;2022-09-09T02:30:52;14.40;99.90
18335;DHT22;9293;49.524;10.964;2022-09-09T02:33:36;14.40;99.90
18335;DHT22;9293;49.524;10.964;2022-09-09T02:36:08;14.40;99.90
18335;DHT22;9293;49.524;10.964;2022-09-09T02:38:45;14.40;99.90
18335;DHT22;9293;49.524;10.964;2022-09-09T02:41:14;14.50;99.90
18335;DHT22;9293;49.524;10.964;2022-09-09T02:43:42;14.50;99.90
18335;DHT22;9293;49.524;10.964;2022-09-09T02:46:27;14.50;99.90
18335;DHT22;9293;49.524;10.964;2022-09-09T02:49:06;14.40;99.90
18335;DHT22;9293;49.524;10.964;2022-09-09T02:51:52;14.30;99.90
18335;DHT22;9293;49.524;10.964;2022-09-09T02:54:27;14.40;99.90
18335;DHT22;9293;49.524;10.964;2022-09-09T02:59:38;14.50;99.90
18335;DHT22;9293;49.524;10.964;2022-09-09T03:02:06;14.50;99.90
18335;DHT22;9293;49.524;10.964;2022-09-09T03:04:34;14.50;99.90
18335;DHT22;9293;49.524;10.964;2022-09-09T03:07:04;14.60;99.90
18335;DHT22;9293;49.524;10.964;2022-09-09T03:09:32;14.60;99.90
18335;DHT22;9293;49.524;10.964;2022-09-09T03:12:02;14.60;99.90
18335;DHT22;9293;49.524;10.964;2022-09-09T03:14:33;14.60;99.90
18335;DHT22;9293;49.524;10.964;2022-09-09T03:17:01;14.60;99.90
18335;DHT22;9293;49.524;10.964;2022-09-09T03:19:35;14.60;99.90
18335;DHT22;9293;49.524;10.964;2022-09-09T03:22:09;14.60;99.90
18335;DHT22;9293;49.524;10.964;2022-09-09T03:24:43;14.50;99.90
18335;DHT22;9293;49.524;10.964;2022-09-09T03:27:10;14.50;99.90
18335;DHT22;9293;49.524;10.964;2022-09-09T03:29:39;14.50;99.90
18335;DHT22;9293;49.524;10.964;2022-09-09T03:32:12;14.40;99.90
18335;DHT22;9293;49.524;10.964;2022-09-09T03:34:40;14.40;99.90
18335;DHT22;9293;49.524;10.964;2022-09-09T03:37:10;14.40;99.90
18335;DHT22;9293;49.524;10.964;2022-09-09T03:39:39;14.40;99.90
18335;DHT22;9293;49.524;10.964;2022-09-09T03:42:08;14.40;99.90
18335;DHT22;9293;49.524;10.964;2022-09-09T03:44:36;14.30;99.90
18335;DHT22;9293;49.524;10.964;2022-09-09T03:47:05;14.40;99.90
18335;DHT22;9293;49.524;10.964;2022-09-09T03:49:34;14.40;99.90
18335;DHT22;9293;49.524;10.964;2022-09-09T03:52:02;14.40;99.90
18335;DHT22;9293;49.524;10.964;2022-09-09T03:54:30;14.40;99.90
18335;DHT22;9293;49.524;10.964;2022-09-09T03:56:58;14.50;99.90
18335;DHT22;9293;49.524;10.964;2022-09-09T03:59:26;14.50;99.90
18335;DHT22;9293;49.524;10.964;2022-09-09T04:01:55;14.50;99.90
18335;DHT22;9293;49.524;10.964;2022-09-09T04:04:25;14.50;99.90
18335;DHT22;9293;49.524;10.964;2022-09-09T04:06:54;14.50;99.90
18335;DHT22;9293;49.524;10.964;2022-09-09T04:09:23;14.50;99.90
18335;DHT22;9293;49.524;10.964;2022-09-09T04:11:51;14.50;99.90
18335;DHT22;9293;49.524;10.964;2022-09-09T04:14:21;14.50;99.90
18335;DHT22;9293;49.524;10.964;2022-09-09T04:16:49;14.50;99.90
18335;DHT22;9293;49.524;10.964;2022-09-09T04:19:17;14.50;99.90
18335;DHT22;9293;49.524;10.964;2022-09-09T04:21:45;14.50;99.90
18335;DHT22;9293;49.524;10.964;2022-09-09T04:24:13;14.50;99.90
18335;DHT22;9293;49.524;10.964;2022-09-09T04:26:43;14.50;99.90
18335;DHT22;9293;49.524;10.964;2022-09-09T04:29:13;14.50;99.90
18335;DHT22;9293;49.524;10.964;2022-09-09T04:31:40;14.50;99.90
18335;DHT22;9293;49.524;10.964;2022-09-09T04:34:09;14.50;99.90
18335;DHT22;9293;49.524;10.964;2022-09-09T04:36:38;14.50;99.90
18335;DHT22;9293;49.524;10.964;2022-09-09T04:39:08;14.50;99.90
18335;DHT22;9293;49.524;10.964;2022-09-09T04:41:38;14.50;99.90
18335;DHT22;9293;49.524;10.964;2022-09-09T04:44:08;14.50;99.90
18335;DHT22;9293;49.524;10.964;2022-09-09T04:46:38;14.50;99.90
18335;DHT22;9293;49.524;10.964;2022-09-09T04:49:14;14.50;99.90
18335;DHT22;9293;49.524;10.964;2022-09-09T04:51:43;14.50;99.90
18335;DHT22;9293;49.524;10.964;2022-09-09T04:54:12;14.50;99.90
18335;DHT22;9293;49.524;10.964;2022-09-09T04:56:42;14.50;99.90
18335;DHT22;9293;49.524;10.964;2022-09-09T04:59:11;14.50;99.90
18335;DHT22;9293;49.524;10.964;2022-09-09T05:01:44;14.50;99.90
18335;DHT22;9293;49.524;10.964;2022-09-09T05:04:12;14.50;99.90
18335;DHT22;9293;49.524;10.964;2022-09-09T05:06:40;14.40;99.90
18335;DHT22;9293;49.524;10.964;2022-09-09T05:09:11;14.40;99.90
18335;DHT22;9293;49.524;10.964;2022-09-09T05:11:39;14.50;99.90
18335;DHT22;9293;49.524;10.964;2022-09-09T05:14:17;14.50;99.90
18335;DHT22;9293;49.524;10.964;2022-09-09T05:16:45;14.60;99.90
18335;DHT22;9293;49.524;10.964;2022-09-09T05:19:14;14.60;99.90
18335;DHT22;9293;49.524;10.964;2022-09-09T05:21:46;14.70;99.90
18335;DHT22;9293;49.524;10.964;2022-09-09T05:24:17;14.70;99.90
18335;DHT22;9293;49.524;10.964;2022-09-09T05:26:47;14.60;99.90
18335;DHT22;9293;49.524;10.964;2022-09-09T05:29:16;14.60;99.90
18335;DHT22;9293;49.524;10.964;2022-09-09T05:31:46;14.70;99.90
18335;DHT22;9293;49.524;10.964;2022-09-09T05:34:19;14.70;99.90
18335;DHT22;9293;49.524;10.964;2022-09-09T05:36:49;14.70;99.90
18335;DHT22;9293;49.524;10.964;2022-09-09T05:39:19;14.70;99.90
18335;DHT22;9293;49.524;10.964;2022-09-09T05:41:50;14.70;99.90
18335;DHT22;9293;49.524;10.964;2022-09-09T05:44:20;14.70;99.90
18335;DHT22;9293;49.524;10.964;2022-09-09T05:46:48;14.70;99.90
18335;DHT22;9293;49.524;10.964;2022-09-09T05:49:17;14.80;99.90
18335;DHT22;9293;49.524;10.964;2022-09-09T05:51:47;14.80;99.90
18335;DHT22;9293;49.524;10.964;2022-09-09T05:54:17;14.80;99.90
18335;DHT22;9293;49.524;10.964;2022-09-09T05:56:48;14.80;99.90
18335;DHT22;9293;49.524;10.964;2022-09-09T05:59:19;14.80;99.90
18335;DHT22;9293;49.524;10.964;2022-09-09T06:01:49;14.80;99.90
18335;DHT22;9293;49.524;10.964;2022-09-09T06:04:29;14.80;99.90
18335;DHT22;9293;49.524;10.964;2022-09-09T06:06:59;14.80;99.90
18335;DHT22;9293;49.524;10.964;2022-09-09T06:09:28;14.90;99.90
18335;DHT22;9293;49.524;10.964;2022-09-09T06:11:58;14.90;99.90
18335;DHT22;9293;49.524;10.964;2022-09-09T06:14:26;15.10;99.90
18335;DHT22;9293;49.524;10.964;2022-09-09T06:16:58;15.20;99.90
18335;DHT22;9293;49.524;10.964;2022-09-09T06:19:29;15.30;99.90
18335;DHT22;9293;49.524;10.964;2022-09-09T06:22:01;15.50;99.90
18335;DHT22;9293;49.524;10.964;2022-09-09T06:24:32;15.60;99.90
18335;DHT22;9293;49.524;10.964;2022-09-09T06:27:02;15.70;99.90
18335;DHT22;9293;49.524;10.964;2022-09-09T06:29:33;15.80;99.90
18335;DHT22;9293;49.524;10.964;2022-09-09T06:32:02;15.90;99.90
18335;DHT22;9293;49.524;10.964;2022-09-09T06:34:33;16.00;99.90
18335;DHT22;9293;49.524;10.964;2022-09-09T06:37:04;16.20;99.90
18335;DHT22;9293;49.524;10.964;2022-09-09T06:39:42;16.20;99.90
18335;DHT22;9293;49.524;10.964;2022-09-09T06:42:10;16.20;99.90
18335;DHT22;9293;49.524;10.964;2022-09-09T06:44:58;16.20;99.90
18335;DHT22;9293;49.524;10.964;2022-09-09T06:47:38;16.20;99.90
18335;DHT22;9293;49.524;10.964;2022-09-09T06:50:07;16.20;99.90
18335;DHT22;9293;49.524;10.964;2022-09-09T06:52:38;16.20;99.90
18335;DHT22;9293;49.524;10.964;2022-09-09T06:55:08;16.20;99.90
18335;DHT22;9293;49.524;10.964;2022-09-09T06:57:37;16.50;99.90
18335;DHT22;9293;49.524;10.964;2022-09-09T07:00:16;16.80;99.90
18335;DHT22;9293;49.524;10.964;2022-09-09T07:02:45;16.90;99.90
18335;DHT22;9293;49.524;10.964;2022-09-09T07:05:13;16.90;99.90
18335;DHT22;9293;49.524;10.964;2022-09-09T07:07:44;16.80;99.90
18335;DHT22;9293;49.524;10.964;2022-09-09T07:10:15;17.00;99.90
18335;DHT22;9293;49.524;10.964;2022-09-09T07:12:44;17.70;99.90
18335;DHT22;9293;49.524;10.964;2022-09-09T07:15:13;18.40;99.90
18335;DHT22;9293;49.524;10.964;2022-09-09T07:17:44;18.70;99.90
18335;DHT22;9293;49.524;10.964;2022-09-09T07:20:13;18.90;99.90
18335;DHT22;9293;49.524;10.964;2022-09-09T07:22:43;18.70;99.90
18335;DHT22;9293;49.524;10.964;2022-09-09T07:25:11;18.40;99.90
18335;DHT22;9293;49.524;10.964;2022-09-09T07:27:40;19.00;99.90
18335;DHT22;9293;49.524;10.964;2022-09-09T07:30:09;20.10;99.90
18335;DHT22;9293;49.524;10.964;2022-09-09T07:32:43;20.90;99.90
18335;DHT22;9293;49.524;10.964;2022-09-09T07:35:11;21.70;99.90
18335;DHT22;9293;49.524;10.964;2022-09-09T07:37:40;22.40;99.90
18335;DHT22;9293;49.524;10.964;2022-09-09T07:40:13;23.00;99.90
18335;DHT22;9293;49.524;10.964;2022-09-09T07:42:41;23.40;99.90
18335;DHT22;9293;49.524;10.964;2022-09-09T07:45:10;23.70;99.90
18335;DHT22;9293;49.524;10.964;2022-09-09T07:47:38;24.00;99.90
18335;DHT22;9293;49.524;10.964;2022-09-09T07:50:06;23.80;99.90
18335;DHT22;9293;49.524;10.964;2022-09-09T07:52:37;23.10;99.90
18335;DHT22;9293;49.524;10.964;2022-09-09T07:55:06;22.60;99.90
18335;DHT22;9293;49.524;10.964;2022-09-09T07:57:35;22.30;99.90
18335;DHT22;9293;49.524;10.964;2022-09-09T08:00:04;22.00;99.90
18335;DHT22;9293;49.524;10.964;2022-09-09T08:02:37;21.60;99.90
18335;DHT22;9293;49.524;10.964;2022-09-09T08:05:09;21.60;99.90
18335;DHT22;9293;49.524;10.964;2022-09-09T08:07:40;22.50;99.90
18335;DHT22;9293;49.524;10.964;2022-09-09T08:10:12;23.70;99.90
18335;DHT22;9293;49.524;10.964;2022-09-09T08:12:44;24.60;99.90
18335;DHT22;9293;49.524;10.964;2022-09-09T08:15:32;24.40;99.90
18335;DHT22;9293;49.524;10.964;2022-09-09T08:18:03;24.30;99.90
18335;DHT22;9293;49.524;10.964;2022-09-09T08:20:33;24.70;99.90
18335;DHT22;9293;49.524;10.964;2022-09-09T08:23:03;25.30;99.90
18335;DHT22;9293;49.524;10.964;2022-09-09T08:25:32;25.90;99.90
18335;DHT22;9293;49.524;10.964;2022-09-09T08:28:02;26.30;99.90
18335;DHT22;9293;49.524;10.964;2022-09-09T08:30:31;26.80;99.90
18335;DHT22;9293;49.524;10.964;2022-09-09T08:32:59;27.50;99.90
18335;DHT22;9293;49.524;10.964;2022-09-09T08:35:28;28.20;99.90
18335;DHT22;9293;49.524;10.964;2022-09-09T08:38:01;28.70;99.90
18335;DHT22;9293;49.524;10.964;2022-09-09T08:40:42;29.00;99.90
18335;DHT22;9293;49.524;10.964;2022-09-09T08:43:21;29.10;99.90
18335;DHT22;9293;49.524;10.964;2022-09-09T08:45:57;28.90;99.90
18335;DHT22;9293;49.524;10.964;2022-09-09T08:48:42;29.20;99.90
18335;DHT22;9293;49.524;10.964;2022-09-09T08:51:13;29.10;99.90
18335;DHT22;9293;49.524;10.964;2022-09-09T08:53:46;28.20;99.90
18335;DHT22;9293;49.524;10.964;2022-09-09T08:56:21;27.90;99.90
18335;DHT22;9293;49.524;10.964;2022-09-09T08:58:56;28.40;99.90
18335;DHT22;9293;49.524;10.964;2022-09-09T09:07:31;28.40;99.90
18335;DHT22;9293;49.524;10.964;2022-09-09T09:13:26;28.80;99.90
18335;DHT22;9293;49.524;10.964;2022-09-09T09:16:06;27.10;99.90
18335;DHT22;9293;49.524;10.964;2022-09-09T09:18:45;26.30;99.90
18335;DHT22;9293;49.524;10.964;2022-09-09T09:23:58;24.50;99.90
18335;DHT22;9293;49.524;10.964;2022-09-09T09:26:33;24.30;99.90
18335;DHT22;9293;49.524;10.964;2022-09-09T09:29:19;24.60;99.90
18335;DHT22;9293;49.524;10.964;2022-09-09T09:31:52;24.10;99.90
18335;DHT22;9293;49.524;10.964;2022-09-09T09:34:24;24.20;99.90
18335;DHT22;9293;49.524;10.964;2022-09-09T09:36:59;24.50;99.90
18335;DHT22;9293;49.524;10.964;2022-09-09T09:39:35;25.20;99.90
18335;DHT22;9293;49.524;10.964;2022-09-09T09:42:26;25.90;99.90
18335;DHT22;9293;49.524;10.964;2022-09-09T09:45:17;26.30;99.90
18335;DHT22;9293;49.524;10.964;2022-09-09T09:47:58;25.90;99.90
18335;DHT22;9293;49.524;10.964;2022-09-09T09:50:54;25.50;99.90
18335;DHT22;9293;49.524;10.964;2022-09-09T09:55:59;24.60;99.90
18335;DHT22;9293;49.524;10.964;2022-09-09T09:58:31;24.10;99.90
18335;DHT22;9293;49.524;10.964;2022-09-09T10:01:01;23.80;99.90
18335;DHT22;9293;49.524;10.964;2022-09-09T10:03:32;23.60;99.90
18335;DHT22;9293;49.524;10.964;2022-09-09T10:06:05;23.60;99.90
18335;DHT22;9293;49.524;10.964;2022-09-09T10:08:44;23.60;99.90
18335;DHT22;9293;49.524;10.964;2022-09-09T10:24:39;24.90;99.90
18335;DHT22;9293;49.524;10.964;2022-09-09T10:30:18;24.40;99.90
18335;DHT22;9293;49.524;10.964;2022-09-09T10:33:02;23.90;99.90
18335;DHT22;9293;49.524;10.964;2022-09-09T10:35:35;23.90;99.90
18335;DHT22;9293;49.524;10.964;2022-09-09T10:38:14;24.10;99.90
18335;DHT22;9293;49.524;10.964;2022-09-09T10:49:17;23.60;99.90
18335;DHT22;9293;49.524;10.964;2022-09-09T10:52:09;23.40;99.90
18335;DHT22;9293;49.524;10.964;2022-09-09T10:55:09;23.10;99.90
18335;DHT22;9293;49.524;10.964;2022-09-09T10:57:48;23.10;99.90
18335;DHT22;9293;49.524;10.964;2022-09-09T11:00:48;23.40;99.90
18335;DHT22;9293;49.524;10.964;2022-09-09T11:03:23;24.00;99.90
18335;DHT22;9293;49.524;10.964;2022-09-09T11:06:06;24.80;99.90
18335;DHT22;9293;49.524;10.964;2022-09-09T11:08:38;25.00;99.90
18335;DHT22;9293;49.524;10.964;2022-09-09T11:11:34;25.20;99.90
18335;DHT22;9293;49.524;10.964;2022-09-09T11:14:18;25.40;99.90
18335;DHT22;9293;49.524;10.964;2022-09-09T11:16:58;25.10;99.90
18335;DHT22;9293;49.524;10.964;2022-09-09T11:22:22;25.00;99.90
18335;DHT22;9293;49.524;10.964;2022-09-09T11:25:07;24.70;99.90
18335;DHT22;9293;49.524;10.964;2022-09-09T11:33:59;23.80;99.90
18335;DHT22;9293;49.524;10.964;2022-09-09T11:44:42;23.40;99.90
18335;DHT22;9293;49.524;10.964;2022-09-09T11:47:30;23.60;99.90
18335;DHT22;9293;49.524;10.964;2022-09-09T11:50:27;23.60;99.90
18335;DHT22;9293;49.524;10.964;2022-09-09T11:53:06;23.10;99.90
18335;DHT22;9293;49.524;10.964;2022-09-09T11:55:43;23.00;99.90
18335;DHT22;9293;49.524;10.964;2022-09-09T12:00:45;23.10;99.90
18335;DHT22;9293;49.524;10.964;2022-09-09T12:03:38;23.10;99.90
18335;DHT22;9293;49.524;10.964;2022-09-09T12:06:17;23.30;99.90
18335;DHT22;9293;49.524;10.964;2022-09-09T12:08:51;23.50;99.90
18335;DHT22;9293;49.524;10.964;2022-09-09T12:11:30;23.70;99.90
18335;DHT22;9293;49.524;10.964;2022-09-09T12:14:00;23.80;99.90
18335;DHT22;9293;49.524;10.964;2022-09-09T12:16:37;24.00;99.90
18335;DHT22;9293;49.524;10.964;2022-09-09T12:19:18;24.30;99.90
18335;DHT22;9293;49.524;10.964;2022-09-09T12:22:25;24.60;99.90
18335;DHT22;9293;49.524;10.964;2022-09-09T12:28:15;25.10;99.90
18335;DHT22;9293;49.524;10.964;2022-09-09T12:31:12;24.80;99.90
18335;DHT22;9293;49.524;10.964;2022-09-09T12:33:46;24.50;99.90
18335;DHT22;9293;49.524;10.964;2022-09-09T12:36:24;24.30;99.90
18335;DHT22;9293;49.524;10.964;2022-09-09T12:38:59;24.10;99.90
18335;DHT22;9293;49.524;10.964;2022-09-09T12:41:38;23.80;99.90
18335;DHT22;9293;49.524;10.964;2022-09-09T12:44:10;23.60;99.90
18335;DHT22;9293;49.524;10.964;2022-09-09T12:46:42;23.40;99.90
18335;DHT22;9293;49.524;10.964;2022-09-09T12:49:32;22.90;99.90
18335;DHT22;9293;49.524;10.964;2022-09-09T12:52:29;22.40;99.90
18335;DHT22;9293;49.524;10.964;2022-09-09T12:54:59;21.60;99.90
18335;DHT22;9293;49.524;10.964;2022-09-09T12:57:34;20.80;99.90
18335;DHT22;9293;49.524;10.964;2022-09-09T13:00:16;19.90;99.90
18335;DHT22;9293;49.524;10.964;2022-09-09T13:02:54;19.40;99.90
18335;DHT22;9293;49.524;10.964;2022-09-09T13:05:28;19.10;99.90
18335;DHT22;9293;49.524;10.964;2022-09-09T13:08:10;18.80;99.90
18335;DHT22;9293;49.524;10.964;2022-09-09T13:10:47;18.60;99.90
18335;DHT22;9293;49.524;10.964;2022-09-09T13:13:27;18.60;99.90
18335;DHT22;9293;49.524;10.964;2022-09-09T13:15:59;18.50;99.90
18335;DHT22;9293;49.524;10.964;2022-09-09T13:18:40;18.50;99.90
18335;DHT22;9293;49.524;10.964;2022-09-09T13:21:08;18.60;99.90
18335;DHT22;9293;49.524;10.964;2022-09-09T13:23:40;18.90;99.90
18335;DHT22;9293;49.524;10.964;2022-09-09T13:26:24;19.30;99.90
18335;DHT22;9293;49.524;10.964;2022-09-09T13:28:54;20.00;99.90
18335;DHT22;9293;49.524;10.964;2022-09-09T13:31:34;20.60;99.90
18335;DHT22;9293;49.524;10.964;2022-09-09T13:34:35;21.00;99.90
18335;DHT22;9293;49.524;10.964;2022-09-09T13:37:05;21.20;99.90
18335;DHT22;9293;49.524;10.964;2022-09-09T13:39:38;21.10;99.90
18335;DHT22;9293;49.524;10.964;2022-09-09T13:42:23;21.20;99.90
18335;DHT22;9293;49.524;10.964;2022-09-09T13:44:53;21.10;99.90
18335;DHT22;9293;49.524;10.964;2022-09-09T13:47:30;21.10;99.90
18335;DHT22;9293;49.524;10.964;2022-09-09T13:50:25;20.90;99.90
18335;DHT22;9293;49.524;10.964;2022-09-09T13:52:56;20.80;99.90
18335;DHT22;9293;49.524;10.964;2022-09-09T13:55:29;20.70;99.90
18335;DHT22;9293;49.524;10.964;2022-09-09T13:58:04;20.60;99.90
18335;DHT22;9293;49.524;10.964;2022-09-09T14:00:34;20.50;99.90
18335;DHT22;9293;49.524;10.964;2022-09-09T14:03:02;20.40;99.90
18335;DHT22;9293;49.524;10.964;2022-09-09T14:05:32;20.40;99.90
18335;DHT22;9293;49.524;10.964;2022-09-09T14:08:03;20.50;99.90
18335;DHT22;9293;49.524;10.964;2022-09-09T14:10:32;20.60;99.90
18335;DHT22;9293;49.524;10.964;2022-09-09T14:13:03;20.70;99.90
18335;DHT22;9293;49.524;10.964;2022-09-09T14:15:31;20.80;99.90
18335;DHT22;9293;49.524;10.964;2022-09-09T14:17:59;21.00;99.90
18335;DHT22;9293;49.524;10.964;2022-09-09T14:20:27;21.10;99.90
18335;DHT22;9293;49.524;10.964;2022-09-09T14:22:54;21.10;99.90
18335;DHT22;9293;49.524;10.964;2022-09-09T14:25:29;21.20;99.90
18335;DHT22;9293;49.524;10.964;2022-09-09T14:27:57;21.10;99.90
18335;DHT22;9293;49.524;10.964;2022-09-09T14:30:24;21.10;99.90
18335;DHT22;9293;49.524;10.964;2022-09-09T14:32:52;21.00;99.90
18335;DHT22;9293;49.524;10.964;2022-09-09T14:35:20;20.70;99.90
18335;DHT22;9293;49.524;10.964;2022-09-09T14:37:49;20.70;99.90
18335;DHT22;9293;49.524;10.964;2022-09-09T14:40:17;20.70;99.90
18335;DHT22;9293;49.524;10.964;2022-09-09T14:42:45;20.70;99.90
18335;DHT22;9293;49.524;10.964;2022-09-09T14:45:13;20.70;99.90
18335;DHT22;9293;49.524;10.964;2022-09-09T14:47:41;20.60;99.90
18335;DHT22;9293;49.524;10.964;2022-09-09T14:50:09;20.50;99.90
18335;DHT22;9293;49.524;10.964;2022-09-09T14:52:38;20.50;99.90
18335;DHT22;9293;49.524;10.964;2022-09-09T14:55:06;20.50;99.90
18335;DHT22;9293;49.524;10.964;2022-09-09T14:57:35;20.50;99.90
18335;DHT22;9293;49.524;10.964;2022-09-09T15:00:04;20.30;99.90
18335;DHT22;9293;49.524;10.964;2022-09-09T15:02:35;20.30;99.90
18335;DHT22;9293;49.524;10.964;2022-09-09T15:05:03;20.30;99.90
18335;DHT22;9293;49.524;10.964;2022-09-09T15:07:32;20.40;99.90
18335;DHT22;9293;49.524;10.964;2022-09-09T15:09:59;20.50;99.90
18335;DHT22;9293;49.524;10.964;2022-09-09T15:12:27;20.50;99.90
18335;DHT22;9293;49.524;10.964;2022-09-09T15:14:56;20.50;99.90
18335;DHT22;9293;49.524;10.964;2022-09-09T15:17:24;20.50;99.90
18335;DHT22;9293;49.524;10.964;2022-09-09T15:19:53;20.50;99.90
18335;DHT22;9293;49.524;10.964;2022-09-09T15:22:22;20.40;99.90
18335;DHT22;9293;49.524;10.964;2022-09-09T15:24:51;20.20;99.90
18335;DHT22;9293;49.524;10.964;2022-09-09T15:27:19;20.20;99.90
18335;DHT22;9293;49.524;10.964;2022-09-09T15:29:49;20.10;99.90
18335;DHT22;9293;49.524;10.964;2022-09-09T15:32:21;19.90;99.90
18335;DHT22;9293;49.524;10.964;2022-09-09T15:34:49;19.80;99.90
18335;DHT22;9293;49.524;10.964;2022-09-09T15:37:18;19.80;99.90
18335;DHT22;9293;49.524;10.964;2022-09-09T15:39:46;19.80;99.90
18335;DHT22;9293;49.524;10.964;2022-09-09T15:42:15;19.90;99.90
18335;DHT22;9293;49.524;10.964;2022-09-09T15:44:43;20.20;99.90
18335;DHT22;9293;49.524;10.964;2022-09-09T15:47:12;20.50;99.90
18335;DHT22;9293;49.524;10.964;2022-09-09T15:49:40;20.70;99.90
18335;DHT22;9293;49.524;10.964;2022-09-09T15:52:10;20.70;99.90
18335;DHT22;9293;49.524;10.964;2022-09-09T15:54:38;20.80;99.90
18335;DHT22;9293;49.524;10.964;2022-09-09T15:57:10;20.80;99.90
18335;DHT22;9293;49.524;10.964;2022-09-09T15:59:39;20.70;99.90
18335;DHT22;9293;49.524;10.964;2022-09-09T16:02:09;20.60;99.90
18335;DHT22;9293;49.524;10.964;2022-09-09T16:04:37;20.50;99.90
18335;DHT22;9293;49.524;10.964;2022-09-09T16:07:05;20.50;99.90
18335;DHT22;9293;49.524;10.964;2022-09-09T16:09:34;20.40;99.90
18335;DHT22;9293;49.524;10.964;2022-09-09T16:12:04;20.40;99.90
18335;DHT22;9293;49.524;10.964;2022-09-09T16:14:34;20.30;99.90
18335;DHT22;9293;49.524;10.964;2022-09-09T16:17:04;20.30;99.90
18335;DHT22;9293;49.524;10.964;2022-09-09T16:19:33;20.20;99.90
18335;DHT22;9293;49.524;10.964;2022-09-09T16:22:02;20.10;99.90
18335;DHT22;9293;49.524;10.964;2022-09-09T16:24:31;20.00;99.90
18335;DHT22;9293;49.524;10.964;2022-09-09T16:26:59;20.00;99.90
18335;DHT22;9293;49.524;10.964;2022-09-09T16:29:27;20.00;99.90
18335;DHT22;9293;49.524;10.964;2022-09-09T16:31:55;20.00;99.90
18335;DHT22;9293;49.524;10.964;2022-09-09T16:34:29;20.00;99.90
18335;DHT22;9293;49.524;10.964;2022-09-09T16:36:57;20.10;99.90
18335;DHT22;9293;49.524;10.964;2022-09-09T16:39:25;20.20;99.90
18335;DHT22;9293;49.524;10.964;2022-09-09T16:41:53;20.10;99.90
18335;DHT22;9293;49.524;10.964;2022-09-09T16:44:21;20.20;99.90
18335;DHT22;9293;49.524;10.964;2022-09-09T16:46:50;20.10;99.90
18335;DHT22;9293;49.524;10.964;2022-09-09T16:49:28;20.00;99.90
18335;DHT22;9293;49.524;10.964;2022-09-09T16:51:59;19.80;99.90
18335;DHT22;9293;49.524;10.964;2022-09-09T16:54:28;19.60;99.90
18335;DHT22;9293;49.524;10.964;2022-09-09T16:56:56;19.40;99.90
18335;DHT22;9293;49.524;10.964;2022-09-09T16:59:25;19.30;99.90
18335;DHT22;9293;49.524;10.964;2022-09-09T17:01:54;19.10;99.90
18335;DHT22;9293;49.524;10.964;2022-09-09T17:04:26;19.20;99.90
18335;DHT22;9293;49.524;10.964;2022-09-09T17:06:54;19.10;99.90
18335;DHT22;9293;49.524;10.964;2022-09-09T17:09:25;19.10;99.90
18335;DHT22;9293;49.524;10.964;2022-09-09T17:11:56;19.00;99.90
18335;DHT22;9293;49.524;10.964;2022-09-09T17:14:24;19.00;99.90
18335;DHT22;9293;49.524;10.964;2022-09-09T17:16:53;19.00;99.90
18335;DHT22;9293;49.524;10.964;2022-09-09T17:19:20;18.90;99.90
18335;DHT22;9293;49.524;10.964;2022-09-09T17:21:48;19.00;99.90
18335;DHT22;9293;49.524;10.964;2022-09-09T17:24:36;18.90;99.90
18335;DHT22;9293;49.524;10.964;2022-09-09T17:27:06;18.80;99.90
18335;DHT22;9293;49.524;10.964;2022-09-09T17:29:34;18.80;99.90
18335;DHT22;9293;49.524;10.964;2022-09-09T17:32:03;18.80;99.90
18335;DHT22;9293;49.524;10.964;2022-09-09T17:34:34;18.80;99.90
18335;DHT22;9293;49.524;10.964;2022-09-09T17:37:02;18.80;99.90
18335;DHT22;9293;49.524;10.964;2022-09-09T17:39:32;18.80;99.90
18335;DHT22;9293;49.524;10.964;2022-09-09T17:42:00;18.80;99.90
18335;DHT22;9293;49.524;10.964;2022-09-09T17:44:28;18.90;99.90
18335;DHT22;9293;49.524;10.964;2022-09-09T17:46:56;18.90;99.90
18335;DHT22;9293;49.524;10.964;2022-09-09T17:49:24;18.80;99.90